Time;durP1;ratioP1;P1;durP2;ratioP2;P2;SDS_P1;SDS_P2;PMS_P1;PMS_P2;Temp;Humidity;BMP_temperature;BMP_pressure;BME280_temperature;BME280_humidity;BME280_pressure;Samples;Min_cycle;Max_cycle;Signal;HPM_P1;HPM_P2
2022/06/23 00:00:27;;;;;;;;;;;20.50;99.90;20.50;99119.00;;;;342055;28;83378;-90
2022/06/23 00:00:39;;;;;;;;;;;20.60;99.90;20.50;99102.00;;;;344648;28;85833;-90
2022/06/23 00:00:56;;;;;;;;;;;20.60;99.90;20.60;99115.00;;;;344402;28;83310;-90
2022/06/23 00:01:16;;;;;;;;;;;20.50;99.90;20.60;99107.00;;;;343735;28;83631;-91
2022/06/23 00:01:55;;;;;;;;;;;20.60;99.90;20.60;99114.00;;;;344449;28;82574;-90
2022/06/23 00:02:23;;;;;;;;;;;20.60;99.90;20.70;99113.00;;;;337888;28;87275;-90
2022/06/23 00:02:37;;;;;;;;;;;20.60;99.90;20.70;99117.00;;;;344857;28;82510;-90
2022/06/23 00:02:49;;;;;;;;;;;20.60;99.90;20.80;99116.00;;;;343790;28;86316;-90
2022/06/23 00:03:02;;;;;;;;;;;20.60;99.90;20.80;99115.00;;;;343796;28;82490;-90
2022/06/23 00:03:18;;;;;;;;;;;20.60;99.90;20.80;99107.00;;;;344878;28;86381;-90
2022/06/23 00:03:32;;;;;;;;;;;20.60;99.90;20.80;99119.00;;;;344785;28;83472;-90
2022/06/23 00:03:44;;;;;;;;;;;20.60;99.90;20.70;99111.00;;;;343348;28;87786;-90
2022/06/23 00:03:56;;;;;;;;;;;20.60;99.90;20.80;99115.00;;;;345073;28;83670;-90
2022/06/23 00:04:13;;;;;;;;;;;20.60;99.90;20.70;99115.00;;;;345551;28;87154;-90
2022/06/23 00:04:27;;;;;;;;;;;20.70;99.90;20.80;99120.00;;;;346209;28;84778;-90
2022/06/23 00:04:42;;;;;;;;;;;20.70;99.90;20.80;99118.00;;;;344241;28;86253;-90
2022/06/23 00:04:58;;;;;;;;;;;20.70;99.90;20.80;99127.00;;;;345549;28;83406;-90
2022/06/23 00:05:16;;;;;;;;;;;20.70;99.90;20.80;99128.00;;;;344245;28;86550;-90
2022/06/23 00:05:29;;;;;;;;;;;20.60;99.90;20.70;99123.00;;;;342771;28;83346;-90
2022/06/23 00:05:41;;;;;;;;;;;20.60;99.90;20.70;99128.00;;;;345658;28;84106;-91
2022/06/23 00:05:56;;;;;;;;;;;20.70;99.90;20.70;99123.00;;;;345224;28;83449;-90
2022/06/23 00:06:24;;;;;;;;;;;20.70;99.90;20.70;99122.00;;;;343581;28;85989;-90
2022/06/23 00:07:01;;;;;;;;;;;20.70;99.90;20.70;99118.00;;;;345047;28;83311;-90
2022/06/23 00:07:35;;;;;;;;;;;20.70;99.90;20.70;99120.00;;;;343667;28;86349;-91
2022/06/23 00:07:50;;;;;;;;;;;20.70;99.90;20.70;99112.00;;;;343575;28;82499;-90
2022/06/23 00:08:02;;;;;;;;;;;20.70;99.90;20.70;99109.00;;;;345196;28;86422;-91
2022/06/23 00:08:14;;;;;;;;;;;20.70;99.90;20.70;99115.00;;;;345170;28;82536;-90
2022/06/23 00:08:26;;;;;;;;;;;20.60;99.90;20.80;99112.00;;;;345069;28;86411;-90
2022/06/23 00:08:43;;;;;;;;;;;20.70;99.90;20.80;99104.00;;;;345512;28;82316;-91
2022/06/23 00:08:55;;;;;;;;;;;20.70;99.90;20.80;99111.00;;;;345155;28;86238;-89
2022/06/23 00:09:32;;;;;;;;;;;20.70;99.90;21.00;99104.00;;;;345174;28;83372;-90
2022/06/23 00:09:43;;;;;;;;;;;20.70;99.90;20.90;99101.00;;;;347925;28;86282;-89
2022/06/23 00:09:57;;;;;;;;;;;20.70;99.90;20.80;99108.00;;;;345189;28;82512;-90
2022/06/23 00:10:21;;;;;;;;;;;20.70;99.90;20.80;99105.00;;;;344916;28;87055;-90
2022/06/23 00:10:37;;;;;;;;;;;20.70;99.90;20.80;99106.00;;;;345098;28;82336;-90
2022/06/23 00:10:55;;;;;;;;;;;20.70;99.90;20.80;99103.00;;;;345166;28;86280;-90
2022/06/23 00:11:18;;;;;;;;;;;20.80;99.90;20.80;99107.00;;;;346550;28;82191;-89
2022/06/23 00:11:29;;;;;;;;;;;20.70;99.90;20.80;99111.00;;;;345246;28;86561;-90
2022/06/23 00:11:47;;;;;;;;;;;20.70;99.90;20.90;99105.00;;;;346573;28;82289;-90
2022/06/23 00:12:00;;;;;;;;;;;20.70;99.90;20.90;99107.00;;;;346353;28;86177;-90
2022/06/23 00:12:12;;;;;;;;;;;20.70;99.90;20.90;99107.00;;;;344703;28;83616;-90
2022/06/23 00:12:31;;;;;;;;;;;20.70;99.90;20.90;99114.00;;;;344655;28;87447;-89
2022/06/23 00:12:44;;;;;;;;;;;20.80;99.90;20.80;99106.00;;;;345993;28;83205;-90
2022/06/23 00:12:55;;;;;;;;;;;20.80;99.90;20.80;99108.00;;;;342722;28;83611;-90
2022/06/23 00:13:15;;;;;;;;;;;20.80;99.90;20.80;99106.00;;;;344190;28;83597;-90
2022/06/23 00:13:35;;;;;;;;;;;20.80;99.90;20.90;99106.00;;;;345423;28;86503;-90
2022/06/23 00:13:47;;;;;;;;;;;20.80;99.90;20.90;99101.00;;;;344819;28;84153;-90
2022/06/23 00:14:12;;;;;;;;;;;20.80;99.90;20.80;99108.00;;;;345744;28;85483;-90
2022/06/23 00:14:25;;;;;;;;;;;20.80;99.90;20.80;99102.00;;;;340721;28;83397;-90
2022/06/23 00:14:37;;;;;;;;;;;20.80;99.90;20.80;99099.00;;;;343251;28;87283;-90
2022/06/23 00:14:59;;;;;;;;;;;20.80;99.90;20.80;99101.00;;;;343443;28;83200;-90
2022/06/23 00:15:29;;;;;;;;;;;20.80;99.90;20.80;99104.00;;;;344194;28;87716;-89
2022/06/23 00:15:42;;;;;;;;;;;20.80;99.90;20.90;99101.00;;;;344792;28;82574;-90
2022/06/23 00:15:54;;;;;;;;;;;20.80;99.90;21.00;99109.00;;;;341881;28;84700;-90
2022/06/23 00:16:22;;;;;;;;;;;20.80;99.90;21.00;99103.00;;;;343606;28;83444;-90
2022/06/23 00:16:34;;;;;;;;;;;20.80;99.90;20.90;99109.00;;;;345968;28;86730;-90
2022/06/23 00:16:46;;;;;;;;;;;20.80;99.90;20.90;99100.00;;;;344856;28;82348;-89
2022/06/23 00:17:14;;;;;;;;;;;20.80;99.90;20.90;99111.00;;;;341997;28;86157;-90
2022/06/23 00:17:42;;;;;;;;;;;20.80;99.90;21.00;99109.00;;;;344536;28;82483;-91
2022/06/23 00:17:58;;;;;;;;;;;20.80;99.90;21.00;99099.00;;;;343180;28;86132;-90
2022/06/23 00:18:24;;;;;;;;;;;20.90;99.90;21.00;99104.00;;;;343449;28;82276;-89
2022/06/23 00:18:37;;;;;;;;;;;20.90;99.90;20.90;99105.00;;;;341862;28;86390;-90
2022/06/23 00:18:48;;;;;;;;;;;20.90;99.90;21.00;99101.00;;;;343389;28;83451;-90
2022/06/23 00:19:00;;;;;;;;;;;20.90;99.90;21.00;99105.00;;;;342804;28;84685;-91
2022/06/23 00:19:13;;;;;;;;;;;20.90;99.90;21.00;99104.00;;;;344599;28;83457;-90
2022/06/23 00:19:25;;;;;;;;;;;20.90;99.90;21.00;99103.00;;;;343196;28;86271;-90
2022/06/23 00:19:37;;;;;;;;;;;20.90;99.90;21.00;99106.00;;;;344672;28;83396;-90
2022/06/23 00:19:48;;;;;;;;;;;20.90;99.90;20.90;99105.00;;;;344400;28;87543;-90
2022/06/23 00:20:06;;;;;;;;;;;20.90;99.90;21.00;99103.00;;;;343014;28;82449;-90
2022/06/23 00:20:28;;;;;;;;;;;20.90;99.90;20.90;99106.00;;;;344686;28;87313;-90
2022/06/23 00:20:54;;;;;;;;;;;20.90;99.90;21.00;99110.00;;;;344823;28;83194;-90
2022/06/23 00:21:17;;;;;;;;;;;20.90;99.90;21.00;99111.00;;;;345933;28;86639;-90
2022/06/23 00:21:30;;;;;;;;;;;20.90;99.90;21.00;99113.00;;;;346171;28;83377;-90
2022/06/23 00:21:44;;;;;;;;;;;20.90;99.90;21.00;99114.00;;;;343261;28;87396;-90
2022/06/23 00:21:56;;;;;;;;;;;20.90;99.90;21.00;99113.00;;;;342884;28;83524;-90
2022/06/23 00:22:08;;;;;;;;;;;20.90;99.90;20.90;99112.00;;;;344460;28;87295;-90
2022/06/23 00:22:20;;;;;;;;;;;20.90;99.90;20.90;99113.00;;;;346240;28;83324;-90
2022/06/23 00:22:32;;;;;;;;;;;20.90;99.90;20.90;99113.00;;;;341817;28;86219;-90
2022/06/23 00:22:47;;;;;;;;;;;20.90;99.90;20.90;99119.00;;;;343366;28;83285;-91
2022/06/23 00:23:06;;;;;;;;;;;20.90;99.90;21.00;99115.00;;;;342979;28;84745;-90
2022/06/23 00:23:29;;;;;;;;;;;20.90;99.90;20.90;99119.00;;;;341977;28;82644;-90
2022/06/23 00:23:41;;;;;;;;;;;20.90;99.90;20.90;99120.00;;;;343265;28;86145;-90
2022/06/23 00:23:55;;;;;;;;;;;20.90;99.90;20.90;99125.00;;;;341898;28;82449;-90
2022/06/23 00:24:13;;;;;;;;;;;20.90;99.90;20.90;99123.00;;;;343265;28;87258;-90
2022/06/23 00:24:25;;;;;;;;;;;20.90;99.90;20.90;99125.00;;;;344751;28;82384;-90
2022/06/23 00:24:37;;;;;;;;;;;20.90;99.90;21.00;99120.00;;;;344604;28;84675;-90
2022/06/23 00:24:51;;;;;;;;;;;20.90;99.90;21.00;99123.00;;;;344606;28;82417;-89
2022/06/23 00:25:04;;;;;;;;;;;20.90;99.90;21.00;99120.00;;;;343035;28;87436;-90
2022/06/23 00:25:30;;;;;;;;;;;20.90;99.90;21.00;99121.00;;;;342022;28;83398;-90
2022/06/23 00:25:49;;;;;;;;;;;20.90;99.90;21.00;99120.00;;;;343250;28;87625;-90
2022/06/23 00:26:13;;;;;;;;;;;20.90;99.90;21.00;99123.00;;;;343175;28;82576;-90
2022/06/23 00:26:27;;;;;;;;;;;20.90;99.90;21.00;99122.00;;;;343290;28;86328;-90
2022/06/23 00:26:39;;;;;;;;;;;20.90;99.90;21.00;99123.00;;;;342921;28;83494;-90
2022/06/23 00:26:50;;;;;;;;;;;20.90;99.90;21.00;99119.00;;;;341955;28;86850;-90
2022/06/23 00:27:03;;;;;;;;;;;20.90;99.90;21.00;99124.00;;;;343311;28;83423;-90
2022/06/23 00:27:15;;;;;;;;;;;20.90;99.90;21.00;99116.00;;;;340601;28;83448;-90
2022/06/23 00:27:29;;;;;;;;;;;20.90;99.90;21.10;99121.00;;;;341977;28;83537;-90
2022/06/23 00:27:41;;;;;;;;;;;20.90;99.90;21.10;99122.00;;;;343260;28;87243;-90
2022/06/23 00:27:53;;;;;;;;;;;20.90;99.90;21.10;99122.00;;;;343368;28;83403;-90
2022/06/23 00:28:06;;;;;;;;;;;20.90;99.90;21.10;99122.00;;;;343114;28;87357;-90
2022/06/23 00:28:19;;;;;;;;;;;21.00;99.90;21.10;99128.00;;;;344691;28;83219;-90
2022/06/23 00:28:34;;;;;;;;;;;21.00;99.90;21.10;99129.00;;;;343257;28;84627;-90
2022/06/23 00:28:58;;;;;;;;;;;21.00;99.90;21.10;99124.00;;;;344733;28;82622;-90
2022/06/23 00:29:13;;;;;;;;;;;21.00;99.90;20.90;99121.00;;;;343224;28;87391;-91
2022/06/23 00:29:25;;;;;;;;;;;21.00;99.90;20.90;99138.00;;;;343405;28;83216;-90
2022/06/23 00:29:37;;;;;;;;;;;21.00;99.90;21.00;99124.00;;;;341720;28;87280;-90
2022/06/23 00:29:49;;;;;;;;;;;21.00;99.90;21.00;99131.00;;;;344745;28;83646;-90
2022/06/23 00:30:19;;;;;;;;;;;21.00;99.90;21.00;99133.00;;;;343197;28;86731;-90
2022/06/23 00:30:38;;;;;;;;;;;21.00;99.90;21.00;99137.00;;;;343319;28;83450;-90
2022/06/23 00:30:55;;;;;;;;;;;21.00;99.90;21.00;99141.00;;;;344594;28;86264;-90
2022/06/23 00:31:26;;;;;;;;;;;21.00;99.90;20.90;99147.00;;;;344685;28;82435;-90
2022/06/23 00:31:39;;;;;;;;;;;20.90;99.90;21.00;99142.00;;;;344614;28;87580;-90
2022/06/23 00:31:58;;;;;;;;;;;20.90;99.90;21.00;99139.00;;;;343269;28;83399;-90
2022/06/23 00:32:10;;;;;;;;;;;20.90;99.90;21.00;99138.00;;;;343130;28;86164;-90
2022/06/23 00:32:23;;;;;;;;;;;20.90;99.90;21.00;99141.00;;;;343199;28;83561;-90
2022/06/23 00:32:36;;;;;;;;;;;20.90;99.90;21.00;99134.00;;;;345956;28;87675;-90
2022/06/23 00:32:48;;;;;;;;;;;20.90;99.90;21.00;99144.00;;;;343378;28;83174;-90
2022/06/23 00:33:07;;;;;;;;;;;20.90;99.90;21.00;99140.00;;;;343255;28;87364;-90
2022/06/23 00:33:21;;;;;;;;;;;20.90;99.90;20.80;99144.00;;;;343237;28;83385;-89
2022/06/23 00:33:42;;;;;;;;;;;20.90;99.90;20.90;99147.00;;;;344609;28;86221;-90
2022/06/23 00:33:54;;;;;;;;;;;20.90;99.90;20.80;99136.00;;;;343852;28;87494;-90
2022/06/23 00:34:29;;;;;;;;;;;20.90;99.90;20.60;99139.00;;;;343819;28;86365;-90
2022/06/23 00:34:44;;;;;;;;;;;20.90;99.90;20.70;99143.00;;;;340577;28;83246;-90
2022/06/23 00:34:57;;;;;;;;;;;20.80;99.90;20.70;99147.00;;;;342155;28;86373;-90
2022/06/23 00:35:12;;;;;;;;;;;20.80;99.90;20.70;99146.00;;;;344431;28;82511;-90
2022/06/23 00:35:23;;;;;;;;;;;20.80;99.90;20.60;99147.00;;;;344644;28;86456;-90
2022/06/23 00:35:35;;;;;;;;;;;20.80;99.90;20.60;99147.00;;;;343083;28;83522;-90
2022/06/23 00:35:48;;;;;;;;;;;20.80;99.90;20.60;99140.00;;;;343213;28;87250;-91
2022/06/23 00:35:59;;;;;;;;;;;20.80;99.90;20.60;99142.00;;;;344636;28;83411;-90
2022/06/23 00:36:25;;;;;;;;;;;20.80;99.90;20.70;99150.00;;;;343277;28;84915;-90
2022/06/23 00:36:40;;;;;;;;;;;20.80;99.90;20.80;99153.00;;;;343271;28;83399;-90
2022/06/23 00:37:01;;;;;;;;;;;20.70;99.90;20.60;99147.00;;;;344258;28;85015;-90
2022/06/23 00:37:14;;;;;;;;;;;20.80;99.90;20.50;99139.00;;;;344452;28;83640;-90
2022/06/23 00:37:26;;;;;;;;;;;20.70;99.90;20.70;99146.00;;;;346736;28;86425;-90
2022/06/23 00:37:38;;;;;;;;;;;20.80;99.90;20.70;99145.00;;;;344536;28;82413;-90
2022/06/23 00:37:51;;;;;;;;;;;20.70;99.90;20.60;99147.00;;;;344613;28;88136;-90
2022/06/23 00:38:02;;;;;;;;;;;20.80;99.90;20.60;99147.00;;;;344772;28;83352;-90
2022/06/23 00:38:38;;;;;;;;;;;20.70;99.90;20.60;99147.00;;;;344667;28;86338;-90
2022/06/23 00:38:49;;;;;;;;;;;20.70;99.90;20.50;99145.00;;;;344751;28;82660;-90
2022/06/23 00:39:03;;;;;;;;;;;20.70;99.90;20.40;99140.00;;;;346072;28;86332;-90
2022/06/23 00:39:36;;;;;;;;;;;20.70;99.90;20.50;99155.00;;;;346125;28;82409;-90
2022/06/23 00:40:11;;;;;;;;;;;20.60;99.90;20.40;99163.00;;;;347332;27;85644;-90
2022/06/23 00:40:23;;;;;;;;;;;20.70;99.90;20.40;99153.00;;;;342187;28;83368;-89
2022/06/23 00:40:34;;;;;;;;;;;20.60;99.90;20.50;99155.00;;;;344447;28;86047;-90
2022/06/23 00:40:46;;;;;;;;;;;20.60;99.90;20.30;99158.00;;;;344479;28;83422;-90
2022/06/23 00:40:58;;;;;;;;;;;20.60;99.90;20.40;99153.00;;;;343267;28;84918;-90
2022/06/23 00:41:17;;;;;;;;;;;20.60;99.90;20.40;99157.00;;;;343399;28;82428;-90
2022/06/23 00:41:33;;;;;;;;;;;20.60;99.90;20.30;99159.00;;;;343222;28;88070;-90
2022/06/23 00:41:45;;;;;;;;;;;20.60;99.90;20.40;99154.00;;;;344675;28;83331;-90
2022/06/23 00:41:57;;;;;;;;;;;20.60;99.90;20.40;99156.00;;;;344522;28;87696;-90
2022/06/23 00:42:25;;;;;;;;;;;20.60;99.90;20.40;99154.00;;;;346175;28;83280;-90
2022/06/23 00:42:40;;;;;;;;;;;20.60;99.90;20.30;99155.00;;;;345903;28;87027;-90
2022/06/23 00:43:01;;;;;;;;;;;20.50;99.90;20.40;99162.00;;;;344315;28;83417;-90
2022/06/23 00:43:13;;;;;;;;;;;20.50;99.90;20.30;99153.00;;;;343155;28;87242;-90
2022/06/23 00:43:25;;;;;;;;;;;20.50;99.90;20.30;99150.00;;;;344922;28;83243;-90
2022/06/23 00:43:37;;;;;;;;;;;20.50;99.90;20.30;99155.00;;;;344552;28;87422;-90
2022/06/23 00:43:50;;;;;;;;;;;20.50;99.90;20.30;99155.00;;;;343335;28;83476;-90
2022/06/23 00:44:13;;;;;;;;;;;20.40;99.90;20.30;99163.00;;;;343099;28;87504;-90
2022/06/23 00:44:31;;;;;;;;;;;20.40;99.90;20.20;99155.00;;;;342052;28;83356;-89
2022/06/23 00:45:11;;;;;;;;;;;20.40;99.90;20.20;99162.00;;;;344492;28;86693;-89
2022/06/23 00:45:40;;;;;;;;;;;20.40;99.90;20.10;99158.00;;;;337945;28;83304;-90
2022/06/23 00:45:55;;;;;;;;;;;20.40;99.90;20.10;99159.00;;;;336068;28;87672;-89
2022/06/23 00:46:14;;;;;;;;;;;20.30;99.90;20.10;99150.00;;;;339182;28;82509;-90
2022/06/23 00:46:33;;;;;;;;;;;20.30;99.90;20.10;99153.00;;;;339620;28;86244;-90
2022/06/23 00:46:49;;;;;;;;;;;20.30;99.90;20.10;99153.00;;;;337931;28;83311;-90
2022/06/23 00:47:03;;;;;;;;;;;20.30;99.90;20.10;99149.00;;;;337825;28;86337;-90
2022/06/23 00:47:18;;;;;;;;;;;20.30;99.90;20.10;99142.00;;;;336552;28;82603;-90
2022/06/23 00:47:56;;;;;;;;;;;20.20;99.90;20.10;99146.00;;;;335211;29;87536;-90
2022/06/23 00:48:20;;;;;;;;;;;20.20;99.90;20.10;99146.00;;;;334110;29;83257;-90
2022/06/23 00:48:42;;;;;;;;;;;20.20;99.90;20.00;99137.00;;;;339012;28;87227;-90
2022/06/23 00:48:58;;;;;;;;;;;20.20;99.90;20.10;99135.00;;;;337816;28;83575;-90
2022/06/23 00:49:29;;;;;;;;;;;20.20;99.90;20.10;99134.00;;;;337391;28;86658;-90
2022/06/23 00:49:41;;;;;;;;;;;20.20;99.90;20.00;99130.00;;;;337575;28;83411;-90
2022/06/23 00:50:11;;;;;;;;;;;20.20;99.90;20.00;99126.00;;;;337802;28;87797;-90
2022/06/23 00:50:38;;;;;;;;;;;20.20;99.90;20.10;99130.00;;;;336538;28;83345;-90
2022/06/23 00:51:05;;;;;;;;;;;20.20;99.90;20.10;99120.00;;;;336618;28;84098;-90
2022/06/23 00:51:35;;;;;;;;;;;20.20;99.90;20.10;99126.00;;;;337823;28;83485;-90
2022/06/23 00:51:49;;;;;;;;;;;20.20;99.90;20.30;99130.00;;;;339099;28;86433;-90
2022/06/23 00:52:10;;;;;;;;;;;20.20;99.90;20.30;99130.00;;;;338901;28;83316;-90
2022/06/23 00:52:38;;;;;;;;;;;20.20;99.90;20.30;99125.00;;;;337797;28;85800;-90
2022/06/23 00:52:53;;;;;;;;;;;20.20;99.90;20.40;99125.00;;;;339244;28;83381;-90
2022/06/23 00:53:11;;;;;;;;;;;20.20;99.90;20.40;99127.00;;;;339086;28;86710;-91
2022/06/23 00:53:27;;;;;;;;;;;20.20;99.90;20.30;99118.00;;;;337986;28;82539;-91
2022/06/23 00:54:11;;;;;;;;;;;20.30;99.90;20.40;99125.00;;;;339136;28;87539;-89
2022/06/23 00:54:29;;;;;;;;;;;20.30;99.90;20.20;99128.00;;;;338079;28;82670;-90
2022/06/23 00:54:46;;;;;;;;;;;20.30;99.90;20.30;99115.00;;;;339225;28;86262;-90
2022/06/23 00:55:00;;;;;;;;;;;20.30;99.90;20.40;99113.00;;;;336290;28;82764;-90
2022/06/23 00:55:17;;;;;;;;;;;20.30;99.90;20.30;99124.00;;;;337980;28;87153;-89
2022/06/23 00:55:35;;;;;;;;;;;20.30;99.90;20.30;99119.00;;;;339128;28;83477;-90
2022/06/23 00:56:05;;;;;;;;;;;20.30;99.90;20.20;99118.00;;;;340440;28;85933;-90
2022/06/23 00:56:40;;;;;;;;;;;20.30;99.90;20.20;99119.00;;;;337916;28;83225;-90
2022/06/23 00:57:24;;;;;;;;;;;20.30;99.90;20.40;99115.00;;;;339142;28;87273;-90
2022/06/23 00:57:57;;;;;;;;;;;20.30;99.90;20.40;99106.00;;;;335274;29;83403;-90
2022/06/23 00:58:35;;;;;;;;;;;20.30;99.90;20.40;99110.00;;;;335890;28;86555;-90
2022/06/23 00:59:13;;;;;;;;;;;20.30;99.90;20.40;99111.00;;;;333664;29;83371;-90
2022/06/23 00:59:44;;;;;;;;;;;20.30;99.90;20.40;99111.00;;;;331560;29;83899;-90
2022/06/23 01:00:18;;;;;;;;;;;20.40;99.90;20.50;99098.00;;;;332631;29;83436;-90
2022/06/23 01:00:33;;;;;;;;;;;20.40;99.90;20.50;99098.00;;;;333837;29;86168;-90
2022/06/23 01:00:44;;;;;;;;;;;20.40;99.90;20.60;99099.00;;;;334025;29;83394;-89
2022/06/23 01:01:03;;;;;;;;;;;20.40;99.90;20.40;99095.00;;;;333373;29;87783;-90
2022/06/23 01:01:37;;;;;;;;;;;20.40;99.90;20.50;99092.00;;;;335274;29;82544;-91
2022/06/23 01:01:52;;;;;;;;;;;20.40;99.90;20.70;99101.00;;;;335089;29;87585;-90
2022/06/23 01:02:05;;;;;;;;;;;20.40;99.90;20.60;99094.00;;;;332674;29;82543;-90
2022/06/23 01:02:26;;;;;;;;;;;20.40;99.90;20.60;99097.00;;;;335223;29;87984;-90
2022/06/23 01:03:05;;;;;;;;;;;20.40;99.90;20.40;99101.00;;;;336359;28;83491;-90
2022/06/23 01:03:19;;;;;;;;;;;20.40;99.90;20.50;99101.00;;;;332436;29;87484;-90
2022/06/23 01:03:37;;;;;;;;;;;20.40;99.90;20.50;99098.00;;;;334042;29;82437;-90
2022/06/23 01:04:08;;;;;;;;;;;20.40;99.90;20.40;99112.00;;;;333650;29;87607;-90
2022/06/23 01:04:39;;;;;;;;;;;20.50;99.90;20.40;99111.00;;;;335441;29;83499;-90
2022/06/23 01:05:01;;;;;;;;;;;20.40;99.90;20.50;99108.00;;;;333857;29;87514;-89
2022/06/23 01:05:22;;;;;;;;;;;20.40;99.90;20.40;99109.00;;;;332679;29;83281;-90
2022/06/23 01:05:38;;;;;;;;;;;20.40;99.90;20.30;99123.00;;;;335022;29;86168;-90
2022/06/23 01:05:52;;;;;;;;;;;20.40;99.90;20.30;99122.00;;;;331380;29;83337;-90
2022/06/23 01:06:10;;;;;;;;;;;20.40;99.90;20.30;99119.00;;;;331288;29;87316;-90
2022/06/23 01:06:29;;;;;;;;;;;20.40;99.90;20.30;99119.00;;;;332726;29;83452;-90
2022/06/23 01:06:43;;;;;;;;;;;20.40;99.90;20.30;99124.00;;;;333836;29;87483;-90
2022/06/23 01:07:07;;;;;;;;;;;20.40;99.90;20.40;99128.00;;;;335132;28;83652;-90
2022/06/23 01:07:39;;;;;;;;;;;20.40;99.90;20.50;99135.00;;;;335252;29;86154;-90
2022/06/23 01:08:17;;;;;;;;;;;20.40;99.90;20.50;99138.00;;;;332532;29;83541;-90
2022/06/23 01:08:47;;;;;;;;;;;20.30;99.90;20.50;99145.00;;;;331274;29;86441;-90
2022/06/23 01:09:19;;;;;;;;;;;20.40;99.90;20.50;99148.00;;;;333999;29;83495;-90
2022/06/23 01:10:04;;;;;;;;;;;20.40;99.90;20.40;99158.00;;;;332697;29;84715;-89
2022/06/23 01:10:28;;;;;;;;;;;20.40;99.90;20.40;99162.00;;;;333891;29;83487;-90
2022/06/23 01:10:54;;;;;;;;;;;20.40;99.90;20.50;99154.00;;;;335022;29;86506;-90
2022/06/23 01:11:30;;;;;;;;;;;20.40;99.90;20.40;99159.00;;;;336535;28;82408;-90
2022/06/23 01:11:51;;;;;;;;;;;20.40;99.90;20.40;99161.00;;;;335198;29;86509;-90
2022/06/23 01:12:06;;;;;;;;;;;20.40;99.90;20.30;99159.00;;;;332699;29;83435;-90
2022/06/23 01:12:21;;;;;;;;;;;20.40;99.90;20.40;99159.00;;;;336497;28;87390;-90
2022/06/23 01:12:47;;;;;;;;;;;20.40;99.90;20.30;99159.00;;;;335262;29;83331;-90
2022/06/23 01:13:11;;;;;;;;;;;20.40;99.90;20.20;99149.00;;;;333499;29;85036;-90
2022/06/23 01:14:01;;;;;;;;;;;20.40;99.90;20.20;99145.00;;;;333297;29;83308;-90
2022/06/23 01:14:28;;;;;;;;;;;20.30;99.90;20.10;99142.00;;;;333898;29;87502;-90
2022/06/23 01:14:47;;;;;;;;;;;20.30;99.90;20.10;99142.00;;;;334099;29;82333;-89
2022/06/23 01:15:06;;;;;;;;;;;20.20;99.90;20.10;99135.00;;;;333802;29;86227;-90
2022/06/23 01:15:26;;;;;;;;;;;20.20;99.90;20.00;99141.00;;;;336564;28;82537;-90
2022/06/23 01:16:05;;;;;;;;;;;20.20;99.90;20.00;99129.00;;;;333969;29;84261;-90
2022/06/23 01:16:22;;;;;;;;;;;20.20;99.90;20.10;99122.00;;;;332761;29;83358;-90
2022/06/23 01:16:47;;;;;;;;;;;20.10;99.90;20.00;99121.00;;;;333316;29;86080;-90
2022/06/23 01:17:06;;;;;;;;;;;20.10;99.90;20.10;99128.00;;;;334482;29;83365;-90
2022/06/23 01:17:41;;;;;;;;;;;20.10;99.90;20.20;99121.00;;;;332634;29;86930;-90
2022/06/23 01:18:17;;;;;;;;;;;20.10;99.90;20.10;99115.00;;;;330176;29;83530;-89
2022/06/23 01:18:36;;;;;;;;;;;20.20;99.90;19.90;99119.00;;;;333807;29;87833;-90
2022/06/23 01:18:55;;;;;;;;;;;20.10;99.90;20.00;99126.00;;;;336621;28;83477;-90
2022/06/23 01:19:43;;;;;;;;;;;20.10;99.90;20.10;99121.00;;;;333718;29;86603;-90
2022/06/23 01:19:58;;;;;;;;;;;20.10;99.90;20.00;99127.00;;;;334609;28;83383;-90
2022/06/23 01:20:28;;;;;;;;;;;20.10;99.90;20.10;99131.00;;;;335245;29;87400;-90
2022/06/23 01:21:00;;;;;;;;;;;20.10;99.90;20.10;99128.00;;;;334092;29;83346;-90
2022/06/23 01:21:27;;;;;;;;;;;20.10;99.90;20.20;99136.00;;;;335117;29;85786;-90
2022/06/23 01:21:41;;;;;;;;;;;20.10;99.90;20.20;99130.00;;;;336604;28;83330;-90
2022/06/23 01:21:55;;;;;;;;;;;20.20;99.90;20.20;99131.00;;;;335968;28;86438;-90
2022/06/23 01:22:14;;;;;;;;;;;20.10;99.90;20.20;99124.00;;;;332966;29;83428;-90
2022/06/23 01:22:45;;;;;;;;;;;20.10;99.90;20.20;99136.00;;;;333697;29;87513;-90
2022/06/23 01:23:08;;;;;;;;;;;20.10;99.90;20.10;99129.00;;;;335119;29;85456;-90
2022/06/23 01:23:41;;;;;;;;;;;20.10;99.90;20.10;99128.00;;;;333813;29;86394;-90
2022/06/23 01:24:12;;;;;;;;;;;20.10;99.90;20.10;99126.00;;;;333939;29;83449;-89
2022/06/23 01:24:24;;;;;;;;;;;20.10;99.90;20.10;99123.00;;;;338338;28;84735;-90
2022/06/23 01:24:45;;;;;;;;;;;20.10;99.90;20.10;99127.00;;;;340520;28;83450;-91
2022/06/23 01:25:09;;;;;;;;;;;20.10;99.90;20.10;99133.00;;;;339876;28;87200;-90
2022/06/23 01:25:39;;;;;;;;;;;20.10;99.90;20.20;99128.00;;;;340486;28;83417;-90
2022/06/23 01:26:00;;;;;;;;;;;20.10;99.90;20.30;99131.00;;;;340264;28;87479;-90
2022/06/23 01:26:35;;;;;;;;;;;20.20;99.90;20.40;99128.00;;;;340284;28;83528;-90
2022/06/23 01:27:14;;;;;;;;;;;20.20;99.90;20.40;99140.00;;;;340459;28;87480;-90
2022/06/23 01:27:38;;;;;;;;;;;20.20;99.90;20.30;99141.00;;;;337961;28;83264;-90
2022/06/23 01:28:07;;;;;;;;;;;20.20;99.90;20.20;99139.00;;;;337551;28;86456;-90
2022/06/23 01:28:20;;;;;;;;;;;20.20;99.90;20.20;99138.00;;;;341926;28;82519;-90
2022/06/23 01:28:39;;;;;;;;;;;20.20;99.90;20.20;99138.00;;;;339048;28;86282;-90
2022/06/23 01:28:50;;;;;;;;;;;20.20;99.90;20.30;99137.00;;;;341950;28;83286;-90
2022/06/23 01:29:33;;;;;;;;;;;20.20;99.90;20.30;99139.00;;;;341777;28;88227;-90
2022/06/23 01:29:48;;;;;;;;;;;20.20;99.90;20.20;99145.00;;;;338796;28;83188;-90
2022/06/23 01:30:06;;;;;;;;;;;20.20;99.90;20.20;99141.00;;;;338931;28;87319;-90
2022/06/23 01:30:18;;;;;;;;;;;20.20;99.90;20.20;99146.00;;;;341844;28;83225;-90
2022/06/23 01:30:33;;;;;;;;;;;20.20;99.90;20.30;99150.00;;;;340389;28;86804;-90
2022/06/23 01:31:05;;;;;;;;;;;20.20;99.90;20.30;99149.00;;;;341914;28;83431;-90
2022/06/23 01:31:39;;;;;;;;;;;20.20;99.90;20.30;99155.00;;;;339205;28;86975;-90
2022/06/23 01:31:53;;;;;;;;;;;20.20;99.90;20.30;99149.00;;;;339210;28;82510;-91
2022/06/23 01:32:21;;;;;;;;;;;20.30;99.90;20.30;99160.00;;;;339016;28;86653;-90
2022/06/23 01:32:55;;;;;;;;;;;20.20;99.90;20.40;99160.00;;;;339208;28;83503;-90
2022/06/23 01:33:34;;;;;;;;;;;20.30;99.90;20.30;99157.00;;;;338967;28;87480;-91
2022/06/23 01:34:09;;;;;;;;;;;20.30;99.90;20.30;99165.00;;;;340471;28;83359;-90
2022/06/23 01:34:50;;;;;;;;;;;20.30;99.90;20.30;99163.00;;;;341651;28;86914;-90
2022/06/23 01:35:12;;;;;;;;;;;20.30;99.90;20.30;99163.00;;;;340392;28;83599;-90
2022/06/23 01:35:31;;;;;;;;;;;20.30;99.90;20.40;99165.00;;;;344677;28;83790;-90
2022/06/23 01:36:14;;;;;;;;;;;20.30;99.90;20.40;99168.00;;;;344641;28;83434;-90
2022/06/23 01:36:29;;;;;;;;;;;20.30;99.90;20.40;99171.00;;;;341727;28;86221;-90
2022/06/23 01:36:43;;;;;;;;;;;20.30;99.90;20.40;99169.00;;;;341834;28;83493;-90
2022/06/23 01:37:08;;;;;;;;;;;20.30;99.90;20.40;99165.00;;;;339334;28;84715;-91
2022/06/23 01:37:42;;;;;;;;;;;20.30;99.90;20.20;99171.00;;;;337729;28;83324;-90
2022/06/23 01:38:09;;;;;;;;;;;20.30;99.90;20.40;99175.00;;;;341316;28;85443;-90
2022/06/23 01:38:27;;;;;;;;;;;20.30;99.90;20.40;99177.00;;;;339188;28;83382;-90
2022/06/23 01:39:07;;;;;;;;;;;20.30;99.90;20.50;99173.00;;;;337809;28;86463;-90
2022/06/23 01:39:25;;;;;;;;;;;20.30;99.90;20.40;99177.00;;;;340430;28;82583;-90
2022/06/23 01:39:45;;;;;;;;;;;20.30;99.90;20.40;99177.00;;;;339042;28;87318;-90
2022/06/23 01:40:03;;;;;;;;;;;20.30;99.90;20.40;99170.00;;;;338614;28;83595;-90
2022/06/23 01:40:28;;;;;;;;;;;20.30;99.90;20.40;99166.00;;;;339094;28;87959;-90
2022/06/23 01:40:44;;;;;;;;;;;20.30;99.90;20.50;99177.00;;;;339163;28;83475;-90
2022/06/23 01:40:58;;;;;;;;;;;20.30;99.90;20.50;99172.00;;;;341861;28;86679;-90
2022/06/23 01:41:14;;;;;;;;;;;20.30;99.90;20.50;99168.00;;;;339028;28;83747;-90